createdAt,value
2018-03-24T00:00:55.751Z,6.30
2018-03-24T00:03:23.302Z,6.40
2018-03-24T00:05:50.722Z,6.40
2018-03-24T00:08:18.958Z,6.30
2018-03-24T00:10:46.416Z,6.30
2018-03-24T00:13:13.879Z,6.30
2018-03-24T00:15:41.335Z,6.30
2018-03-24T00:18:08.775Z,6.30
2018-03-24T00:20:36.268Z,6.30
2018-03-24T00:23:03.731Z,6.30
2018-03-24T00:25:31.168Z,6.30
2018-03-24T00:27:59.578Z,6.30
2018-03-24T00:30:27.123Z,6.30
2018-03-24T00:32:54.583Z,6.30
2018-03-24T00:35:22.023Z,6.30
2018-03-24T00:37:49.512Z,6.30
2018-03-24T00:40:16.981Z,6.30
2018-03-24T00:42:44.450Z,6.30
2018-03-24T00:45:12.000Z,6.30
2018-03-24T00:47:39.538Z,6.30
2018-03-24T00:50:06.968Z,6.30
2018-03-24T00:52:35.185Z,6.30
2018-03-24T00:55:02.619Z,6.30
2018-03-24T00:57:30.830Z,6.30
2018-03-24T00:59:58.259Z,6.30
2018-03-24T01:02:26.471Z,6.30
2018-03-24T01:04:53.920Z,6.30
2018-03-24T01:07:21.377Z,6.30
2018-03-24T01:09:48.883Z,6.20
2018-03-24T01:12:16.328Z,6.20
2018-03-24T01:14:43.774Z,6.10
2018-03-24T01:17:11.240Z,6.10
2018-03-24T01:19:38.684Z,6.10
2018-03-24T01:22:06.132Z,6.10
2018-03-24T01:24:33.572Z,6.10
2018-03-24T01:27:01.803Z,6.00
2018-03-24T01:29:29.245Z,6.00
2018-03-24T01:31:56.671Z,6.00
2018-03-24T01:34:24.887Z,5.90
2018-03-24T01:36:52.371Z,5.90
2018-03-24T01:39:19.836Z,5.80
2018-03-24T01:41:47.373Z,5.80
2018-03-24T01:44:14.864Z,5.70
2018-03-24T01:46:42.299Z,5.60
2018-03-24T01:49:09.746Z,5.50
2018-03-24T01:51:37.243Z,5.50
2018-03-24T01:54:04.708Z,5.30
2018-03-24T01:56:32.146Z,5.20
2018-03-24T01:58:59.609Z,5.10
2018-03-24T02:01:27.053Z,5.00
2018-03-24T02:03:54.560Z,5.00
2018-03-24T02:06:22.005Z,4.90
2018-03-24T02:08:49.448Z,4.80
2018-03-24T02:11:16.892Z,4.80
2018-03-24T02:13:45.104Z,4.70
2018-03-24T02:16:12.547Z,4.70
2018-03-24T02:18:40.532Z,4.70
2018-03-24T02:21:12.624Z,4.60
2018-03-24T02:23:40.071Z,4.60
2018-03-24T02:26:07.519Z,4.50
2018-03-24T02:28:34.966Z,4.40
2018-03-24T02:31:02.399Z,4.40
2018-03-24T02:33:30.601Z,4.30
2018-03-24T02:35:58.060Z,4.30
2018-03-24T02:38:26.261Z,4.20
2018-03-24T02:40:53.703Z,4.20
2018-03-24T02:43:21.139Z,4.10
2018-03-24T02:45:49.387Z,4.00
2018-03-24T02:48:16.848Z,4.00
2018-03-24T02:50:44.312Z,4.00
2018-03-24T02:53:11.756Z,3.90
2018-03-24T02:55:39.226Z,3.90
2018-03-24T02:58:06.693Z,3.80
2018-03-24T03:00:34.145Z,3.80
2018-03-24T03:03:01.608Z,3.80
2018-03-24T03:05:29.048Z,3.70
2018-03-24T03:07:56.528Z,3.70
2018-03-24T03:10:23.988Z,3.70
2018-03-24T03:12:51.440Z,3.60
2018-03-24T03:15:18.917Z,3.60
2018-03-24T03:17:46.355Z,3.50
2018-03-24T03:20:13.788Z,3.40
2018-03-24T03:22:41.996Z,3.20
2018-03-24T03:25:09.449Z,3.20
2018-03-24T03:27:36.932Z,3.20
2018-03-24T03:30:04.364Z,3.10
2018-03-24T03:32:31.812Z,3.10
2018-03-24T03:35:00.057Z,2.90
2018-03-24T03:37:27.499Z,2.90
2018-03-24T03:39:54.937Z,2.80
2018-03-24T03:42:22.429Z,2.80
2018-03-24T03:44:49.887Z,2.70
2018-03-24T03:47:17.324Z,2.60
2018-03-24T03:49:44.799Z,2.60
2018-03-24T03:52:12.268Z,2.60
2018-03-24T03:54:39.708Z,2.50
2018-03-24T03:57:07.135Z,2.40
2018-03-24T03:59:35.371Z,2.30
2018-03-24T04:02:02.808Z,2.30
2018-03-24T04:04:30.264Z,2.30
2018-03-24T04:06:57.751Z,2.20
2018-03-24T04:09:25.199Z,2.20
2018-03-24T04:11:52.729Z,2.20
2018-03-24T04:14:20.940Z,2.20
2018-03-24T04:16:48.363Z,2.20
2018-03-24T04:19:16.575Z,2.10
2018-03-24T04:21:44.024Z,2.10
2018-03-24T04:24:11.451Z,2.00
2018-03-24T04:26:38.976Z,2.00
2018-03-24T04:29:06.448Z,1.90
2018-03-24T04:31:33.893Z,1.90
2018-03-24T04:34:01.325Z,1.90
2018-03-24T04:36:28.765Z,1.90
2018-03-24T04:38:56.980Z,1.80
2018-03-24T04:41:24.463Z,1.70
2018-03-24T04:43:52.165Z,1.70
2018-03-24T04:46:19.604Z,1.70
2018-03-24T04:48:47.067Z,1.80
2018-03-24T04:51:14.589Z,1.80
2018-03-24T04:53:42.804Z,1.70
2018-03-24T04:56:10.356Z,1.70
2018-03-24T04:58:37.815Z,1.70
2018-03-24T05:01:05.283Z,1.70
2018-03-24T05:03:32.719Z,1.60
2018-03-24T05:06:00.172Z,1.60
2018-03-24T05:08:27.663Z,1.60
2018-03-24T05:10:55.096Z,1.60
2018-03-24T05:13:22.560Z,1.60
2018-03-24T05:15:49.999Z,1.50
2018-03-24T05:18:18.203Z,1.50
2018-03-24T05:20:45.660Z,1.50
2018-03-24T05:23:13.153Z,1.50
2018-03-24T05:25:40.604Z,1.60
2018-03-24T05:28:08.071Z,1.60
2018-03-24T05:30:35.549Z,1.60
2018-03-24T05:33:02.995Z,1.60
2018-03-24T05:35:30.456Z,1.60
2018-03-24T05:37:57.930Z,1.60
2018-03-24T05:40:25.395Z,1.60
2018-03-24T05:42:52.939Z,1.60
2018-03-24T05:45:20.396Z,1.70
2018-03-24T05:47:47.882Z,1.70
2018-03-24T05:50:15.332Z,1.80
2018-03-24T05:52:42.767Z,1.90
2018-03-24T05:55:10.329Z,1.90
2018-03-24T05:57:37.788Z,2.00
2018-03-24T06:00:05.241Z,2.00
2018-03-24T06:02:32.733Z,2.00
2018-03-24T06:05:00.195Z,2.00
2018-03-24T06:07:27.644Z,2.00
2018-03-24T06:09:55.092Z,2.10
2018-03-24T06:12:22.544Z,2.20
2018-03-24T06:14:49.992Z,2.20
2018-03-24T06:17:18.200Z,2.30
2018-03-24T06:19:45.643Z,2.30
2018-03-24T06:22:13.158Z,2.40
2018-03-24T06:24:40.607Z,2.40
2018-03-24T06:27:08.066Z,2.50
2018-03-24T06:29:35.514Z,2.60
2018-03-24T06:32:02.957Z,2.60
2018-03-24T06:34:30.391Z,2.60
2018-03-24T06:37:08.496Z,2.70
2018-03-24T06:39:36.808Z,2.70
2018-03-24T06:42:04.247Z,2.70
2018-03-24T06:44:32.456Z,2.70
2018-03-24T06:46:59.944Z,2.70
2018-03-24T06:49:27.387Z,2.70
2018-03-24T06:51:54.825Z,2.80
2018-03-24T06:54:22.267Z,2.90
2018-03-24T06:56:50.504Z,3.10
2018-03-24T06:59:17.949Z,3.10
2018-03-24T07:01:45.424Z,3.20
2018-03-24T07:04:12.872Z,3.30
2018-03-24T07:06:40.339Z,3.40
2018-03-24T07:09:07.791Z,3.40
2018-03-24T07:11:35.238Z,3.50
2018-03-24T07:14:02.733Z,3.60
2018-03-24T07:16:30.196Z,3.60
2018-03-24T07:18:57.727Z,3.80
2018-03-24T07:21:25.215Z,3.90
2018-03-24T07:23:52.661Z,4.00
2018-03-24T07:26:20.108Z,4.20
2018-03-24T07:28:47.551Z,4.30
2018-03-24T07:31:15.776Z,4.70
2018-03-24T07:33:43.220Z,4.60
2018-03-24T07:36:10.680Z,4.80
2018-03-24T07:38:38.189Z,4.90
2018-03-24T07:41:05.650Z,5.00
2018-03-24T07:43:33.079Z,5.20
2018-03-24T07:46:00.525Z,5.40
2018-03-24T07:48:27.982Z,5.70
2018-03-24T07:50:55.463Z,5.90
2018-03-24T07:53:22.916Z,6.00
2018-03-24T07:55:50.355Z,6.20
2018-03-24T07:58:17.847Z,6.60
2018-03-24T08:00:45.311Z,6.90
2018-03-24T08:03:12.766Z,7.10
2018-03-24T08:05:40.205Z,7.20
2018-03-24T08:08:07.648Z,7.70
2018-03-24T08:10:35.848Z,7.80
2018-03-24T08:13:03.331Z,7.80
2018-03-24T08:15:30.776Z,8.00
2018-03-24T08:17:58.215Z,9.70
2018-03-24T08:20:25.693Z,12.20
2018-03-24T08:22:53.136Z,14.40
2018-03-24T08:25:21.370Z,17.60
2018-03-24T08:27:48.830Z,17.50
2018-03-24T08:30:23.223Z,18.60
2018-03-24T08:32:51.420Z,20.80
2018-03-24T08:35:18.860Z,20.80
2018-03-24T08:37:46.300Z,20.40
2018-03-24T08:40:13.755Z,19.90
2018-03-24T08:42:41.966Z,19.20
2018-03-24T08:45:09.524Z,19.10
2018-03-24T08:47:37.020Z,19.40
2018-03-24T08:50:04.604Z,19.00
2018-03-24T08:52:32.014Z,18.70
2018-03-24T08:54:59.492Z,18.40
2018-03-24T08:57:26.931Z,18.10
2018-03-24T08:59:54.388Z,18.70
2018-03-24T09:02:21.890Z,19.80
2018-03-24T09:04:49.335Z,20.20
2018-03-24T09:07:16.775Z,20.30
2018-03-24T09:09:44.233Z,21.20
2018-03-24T09:12:11.727Z,21.80
2018-03-24T09:14:39.167Z,22.80
2018-03-24T09:17:06.607Z,22.50
2018-03-24T09:19:34.060Z,22.20
2018-03-24T09:22:02.292Z,22.10
2018-03-24T09:24:29.764Z,22.10
2018-03-24T09:26:57.217Z,22.00
2018-03-24T09:29:24.781Z,21.90
2018-03-24T09:31:52.231Z,21.90
2018-03-24T09:34:19.693Z,21.90
2018-03-24T09:36:47.164Z,22.20
2018-03-24T09:39:14.631Z,22.50
2018-03-24T09:41:42.090Z,23.20
2018-03-24T09:44:09.551Z,23.80
2018-03-24T09:46:37.001Z,24.00
2018-03-24T09:49:04.473Z,24.20
2018-03-24T09:51:32.941Z,23.50
2018-03-24T09:54:00.389Z,22.00
2018-03-24T09:56:27.844Z,21.20
2018-03-24T09:58:55.300Z,21.50
2018-03-24T10:01:23.076Z,22.40
2018-03-24T10:03:50.522Z,24.00
2018-03-24T10:06:17.968Z,25.20
2018-03-24T10:08:46.181Z,24.60
2018-03-24T10:11:13.645Z,24.60
2018-03-24T10:13:41.084Z,22.40
2018-03-24T10:16:08.546Z,20.70
2018-03-24T10:18:36.742Z,20.10
2018-03-24T10:24:23.512Z,20.40
2018-03-24T10:26:51.728Z,21.00
2018-03-24T10:29:19.173Z,21.00
2018-03-24T10:31:46.619Z,21.20
2018-03-24T10:34:14.836Z,21.20
2018-03-24T10:36:42.287Z,21.20
2018-03-24T10:39:09.723Z,20.50
2018-03-24T10:41:37.945Z,20.30
2018-03-24T10:44:05.372Z,20.30
2018-03-24T10:46:32.821Z,21.00
2018-03-24T10:49:01.029Z,23.70
2018-03-24T10:51:29.263Z,23.60
2018-03-24T10:53:57.583Z,22.80
2018-03-24T10:56:25.044Z,22.80
2018-03-24T10:58:52.528Z,21.50
2018-03-24T11:01:25.490Z,21.60
2018-03-24T11:03:52.919Z,22.90
2018-03-24T11:06:21.162Z,24.40
2018-03-24T11:08:48.624Z,24.40
2018-03-24T11:11:16.076Z,24.20
2018-03-24T11:13:43.535Z,24.70
2018-03-24T11:16:10.984Z,25.30
2018-03-24T11:18:38.431Z,25.20
2018-03-24T11:21:05.877Z,23.70
2018-03-24T11:23:34.105Z,22.60
2018-03-24T11:26:01.547Z,22.60
2018-03-24T11:28:28.986Z,23.30
2018-03-24T11:30:56.427Z,23.80
2018-03-24T11:33:24.639Z,22.10
2018-03-24T11:35:52.114Z,22.10
2018-03-24T11:38:19.555Z,19.90
2018-03-24T11:40:47.008Z,18.60
2018-03-24T11:43:15.212Z,17.30
2018-03-24T11:45:42.666Z,17.30
2018-03-24T11:48:10.104Z,16.70
2018-03-24T11:50:38.315Z,16.00
2018-03-24T11:53:05.809Z,15.90
2018-03-24T11:55:33.839Z,16.10
2018-03-24T11:58:01.341Z,18.30
2018-03-24T12:00:28.901Z,21.40
2018-03-24T12:02:56.388Z,23.40
2018-03-24T12:05:23.842Z,23.20
2018-03-24T12:07:51.300Z,24.30
2018-03-24T12:10:18.844Z,24.20
2018-03-24T12:12:46.306Z,23.30
2018-03-24T12:15:13.740Z,22.40
2018-03-24T12:17:41.236Z,21.60
2018-03-24T12:20:08.694Z,20.60
2018-03-24T12:22:36.164Z,19.90
2018-03-24T12:25:03.609Z,19.20
2018-03-24T12:27:31.056Z,18.20
2018-03-24T12:29:58.536Z,17.50
2018-03-24T12:32:26.100Z,16.50
2018-03-24T12:34:53.580Z,16.00
2018-03-24T12:37:21.120Z,15.80
2018-03-24T12:39:48.575Z,15.50
2018-03-24T12:42:16.025Z,15.40
2018-03-24T12:44:43.464Z,15.40
2018-03-24T12:47:10.919Z,15.60
2018-03-24T12:49:39.152Z,15.90
2018-03-24T12:52:06.607Z,15.90
2018-03-24T12:54:34.063Z,16.00
2018-03-24T12:57:01.532Z,16.10
2018-03-24T12:59:28.987Z,16.40
2018-03-24T13:01:56.431Z,17.00
2018-03-24T13:04:23.880Z,18.90
2018-03-24T13:06:51.339Z,20.40
2018-03-24T13:09:18.840Z,21.00
2018-03-24T13:11:46.287Z,20.80
2018-03-24T13:14:13.751Z,20.00
2018-03-24T13:16:41.209Z,19.50
2018-03-24T13:19:08.656Z,19.10
2018-03-24T13:21:36.109Z,19.10
2018-03-24T13:24:04.527Z,19.40
2018-03-24T13:26:32.916Z,20.30
2018-03-24T13:29:00.371Z,20.30
2018-03-24T13:31:27.927Z,21.00
2018-03-24T13:33:55.398Z,21.00
2018-03-24T13:36:22.828Z,20.50
2018-03-24T13:38:51.410Z,20.10
2018-03-24T13:41:19.111Z,20.00
2018-03-24T13:43:46.579Z,19.30
2018-03-24T13:46:14.054Z,18.80
2018-03-24T13:48:41.504Z,19.70
2018-03-24T13:51:08.947Z,22.30
2018-03-24T13:53:36.424Z,24.30
2018-03-24T13:56:03.878Z,23.30
2018-03-24T13:58:31.322Z,21.30
2018-03-24T14:00:58.803Z,19.50
2018-03-24T14:03:26.259Z,19.80
2018-03-24T14:05:53.728Z,21.80
2018-03-24T14:08:21.176Z,22.90
2018-03-24T14:10:48.617Z,24.00
2018-03-24T14:13:16.100Z,24.50
2018-03-24T14:15:43.539Z,25.30
2018-03-24T14:18:10.976Z,25.50
2018-03-24T14:20:39.179Z,24.40
2018-03-24T14:23:06.650Z,24.40
2018-03-24T14:25:34.079Z,23.50
2018-03-24T14:28:02.309Z,21.40
2018-03-24T14:30:29.744Z,21.40
2018-03-24T14:32:57.201Z,21.00
2018-03-24T14:35:24.700Z,21.30
2018-03-24T14:37:52.161Z,20.90
2018-03-24T14:40:19.719Z,20.00
2018-03-24T14:42:47.200Z,19.40
2018-03-24T14:45:14.629Z,19.60
2018-03-24T14:47:42.105Z,20.60
2018-03-24T14:50:09.638Z,21.50
2018-03-24T14:52:37.129Z,22.30
2018-03-24T14:55:04.581Z,22.70
2018-03-24T14:57:32.021Z,22.70
2018-03-24T14:59:59.513Z,21.70
2018-03-24T15:02:26.951Z,21.00
2018-03-24T15:04:54.431Z,20.50
2018-03-24T15:07:21.901Z,19.90
2018-03-24T15:09:49.367Z,19.60
2018-03-24T15:12:16.819Z,19.30
2018-03-24T15:14:44.260Z,19.10
2018-03-24T15:17:11.710Z,19.00
2018-03-24T15:19:39.208Z,19.00
2018-03-24T15:22:06.660Z,19.00
2018-03-24T15:24:34.103Z,18.40
2018-03-24T15:27:01.563Z,18.00
2018-03-24T15:29:40.971Z,17.60
2018-03-24T15:32:21.247Z,16.90
2018-03-24T15:35:00.499Z,16.90
2018-03-24T15:37:28.090Z,17.30
2018-03-24T15:39:55.645Z,18.20
2018-03-24T15:42:23.077Z,19.10
2018-03-24T15:44:50.528Z,20.10
2018-03-24T15:47:18.016Z,20.80
2018-03-24T15:49:45.481Z,20.90
2018-03-24T15:52:12.940Z,19.90
2018-03-24T15:54:40.401Z,19.70
2018-03-24T15:57:07.845Z,18.00
2018-03-24T15:59:35.306Z,18.10
2018-03-24T16:02:02.765Z,17.80
2018-03-24T16:04:30.220Z,17.40
2018-03-24T16:06:57.705Z,16.90
2018-03-24T16:09:25.245Z,16.40
2018-03-24T16:11:52.668Z,15.80
2018-03-24T16:14:20.916Z,14.90
2018-03-24T16:16:48.357Z,14.90
2018-03-24T16:19:15.831Z,14.80
2018-03-24T16:21:43.287Z,14.50
2018-03-24T16:24:10.735Z,14.40
2018-03-24T16:26:39.299Z,14.20
2018-03-24T16:29:06.743Z,14.20
2018-03-24T16:31:34.947Z,13.80
2018-03-24T16:34:02.399Z,13.70
2018-03-24T16:36:29.839Z,13.80
2018-03-24T16:38:57.291Z,13.80
2018-03-24T16:41:24.741Z,13.70
2018-03-24T16:43:52.192Z,13.50
2018-03-24T16:46:20.396Z,13.10
2018-03-24T16:48:47.835Z,13.00
2018-03-24T16:51:15.286Z,12.90
2018-03-24T16:53:43.487Z,12.70
2018-03-24T16:56:10.924Z,12.60
2018-03-24T16:58:39.131Z,12.50
2018-03-24T17:01:06.983Z,12.40
2018-03-24T17:03:35.264Z,12.30
2018-03-24T17:06:02.711Z,12.30
2018-03-24T17:08:30.163Z,12.30
2018-03-24T17:10:57.635Z,12.20
2018-03-24T17:13:25.115Z,12.00
2018-03-24T17:15:52.663Z,12.00
2018-03-24T17:18:20.237Z,11.90
2018-03-24T17:20:47.695Z,11.80
2018-03-24T17:23:15.132Z,11.60
2018-03-24T17:25:42.580Z,11.50
2018-03-24T17:28:10.020Z,11.40
2018-03-24T17:30:38.232Z,11.30
2018-03-24T17:33:05.667Z,11.30
2018-03-24T17:35:33.894Z,11.10
2018-03-24T17:38:01.430Z,11.10
2018-03-24T17:40:28.917Z,11.10
2018-03-24T17:42:56.352Z,11.00
2018-03-24T17:45:23.808Z,10.90
2018-03-24T17:47:51.243Z,10.80
2018-03-24T17:50:19.483Z,10.60
2018-03-24T17:52:46.925Z,10.50
2018-03-24T17:55:14.404Z,10.50
2018-03-24T17:57:41.859Z,10.40
2018-03-24T18:00:09.302Z,10.30
2018-03-24T18:02:36.792Z,10.20
2018-03-24T18:05:04.240Z,10.10
2018-03-24T18:07:31.686Z,10.00
2018-03-24T18:09:59.130Z,9.90
2018-03-24T18:12:26.563Z,9.90
2018-03-24T18:14:54.011Z,9.70
2018-03-24T18:17:21.453Z,9.70
2018-03-24T18:19:48.891Z,9.60
2018-03-24T18:22:16.329Z,9.50
2018-03-24T18:24:43.772Z,9.40
2018-03-24T18:27:11.989Z,9.20
2018-03-24T18:29:39.579Z,9.20
2018-03-24T18:32:07.116Z,9.20
2018-03-24T18:34:34.544Z,9.10
2018-03-24T18:37:02.760Z,9.00
2018-03-24T18:39:30.221Z,8.90
2018-03-24T18:41:57.665Z,8.90
2018-03-24T18:44:25.909Z,8.70
2018-03-24T18:46:53.405Z,8.70
2018-03-24T18:49:20.808Z,8.70
2018-03-24T18:51:48.244Z,8.60
2018-03-24T18:54:15.676Z,8.50
2018-03-24T18:56:43.907Z,8.30
2018-03-24T18:59:11.368Z,8.30
2018-03-24T19:01:38.837Z,8.20
2018-03-24T19:04:06.295Z,8.10
2018-03-24T19:06:34.134Z,8.10
2018-03-24T19:09:01.626Z,8.00
2018-03-24T19:11:29.086Z,7.90
2018-03-24T19:13:56.520Z,7.80
2018-03-24T19:16:24.009Z,7.70
2018-03-24T19:18:51.562Z,7.60
2018-03-24T19:21:18.999Z,7.50
2018-03-24T19:23:46.467Z,7.50
2018-03-24T19:26:13.902Z,7.50
2018-03-24T19:28:42.142Z,7.40
2018-03-24T19:31:09.612Z,7.40
2018-03-24T19:33:37.043Z,7.30
2018-03-24T19:36:04.492Z,7.20
2018-03-24T19:38:31.928Z,7.20
2018-03-24T19:41:00.163Z,7.10
2018-03-24T19:43:27.601Z,7.10
2018-03-24T19:45:55.087Z,7.10
2018-03-24T19:48:22.616Z,7.00
2018-03-24T19:50:50.107Z,7.00
2018-03-24T19:53:17.568Z,6.90
2018-03-24T19:55:45.038Z,6.90
2018-03-24T19:58:12.474Z,6.80
2018-03-24T20:00:39.912Z,6.80
2018-03-24T20:03:07.347Z,6.80
2018-03-24T20:05:35.613Z,6.70
2018-03-24T20:08:03.061Z,6.70
2018-03-24T20:10:30.528Z,6.70
2018-03-24T20:12:58.052Z,6.60
2018-03-24T20:15:25.628Z,6.60
2018-03-24T20:17:53.113Z,6.50
2018-03-24T20:20:20.652Z,6.50
2018-03-24T20:22:48.108Z,6.40
2018-03-24T20:25:15.536Z,6.40
2018-03-24T20:27:43.769Z,6.30
2018-03-24T20:30:11.216Z,6.30
2018-03-24T20:32:38.693Z,6.20
2018-03-24T20:35:06.142Z,6.20
2018-03-24T20:37:33.688Z,6.10
2018-03-24T20:40:01.289Z,6.00
2018-03-24T20:42:28.737Z,6.00
2018-03-24T20:44:56.192Z,6.00
2018-03-24T20:47:23.638Z,5.90
2018-03-24T20:49:51.076Z,5.90
2018-03-24T20:52:19.295Z,5.80
2018-03-24T20:54:46.758Z,5.80
2018-03-24T20:57:14.219Z,5.70
2018-03-24T20:59:41.665Z,5.70
2018-03-24T21:02:09.143Z,5.70
2018-03-24T21:04:36.686Z,5.70
2018-03-24T21:07:04.179Z,5.60
2018-03-24T21:09:31.616Z,5.60
2018-03-24T21:11:59.079Z,5.60
2018-03-24T21:14:26.541Z,5.60
2018-03-24T21:16:54.001Z,5.50
2018-03-24T21:19:21.428Z,5.40
2018-03-24T21:21:49.734Z,5.40
2018-03-24T21:24:17.194Z,5.30
2018-03-24T21:26:44.631Z,5.30
2018-03-24T21:29:12.840Z,5.30
2018-03-24T21:31:40.279Z,5.30
2018-03-24T21:34:07.838Z,5.20
2018-03-24T21:36:35.364Z,5.20
2018-03-24T21:39:02.803Z,5.00
2018-03-24T21:41:30.283Z,4.90
2018-03-24T21:43:57.741Z,4.90
2018-03-24T21:46:25.198Z,4.80
2018-03-24T21:48:52.635Z,4.70
2018-03-24T21:51:20.116Z,4.70
2018-03-24T21:53:47.554Z,4.60
2018-03-24T21:56:15.020Z,4.60
2018-03-24T21:58:42.465Z,4.60
2018-03-24T22:01:09.907Z,4.50
2018-03-24T22:03:38.241Z,4.40
2018-03-24T22:06:05.668Z,4.40
2018-03-24T22:08:33.160Z,4.30
2018-03-24T22:11:00.702Z,4.30
2018-03-24T22:13:28.267Z,4.20
2018-03-24T22:15:55.758Z,4.20
2018-03-24T22:18:23.216Z,4.20
2018-03-24T22:20:50.730Z,4.10
2018-03-24T22:23:19.033Z,4.00
2018-03-24T22:25:46.525Z,3.90
2018-03-24T22:28:13.984Z,4.00
2018-03-24T22:30:41.443Z,4.00
2018-03-24T22:33:08.891Z,3.90
2018-03-24T22:35:36.373Z,3.90
2018-03-24T22:38:03.811Z,3.80
2018-03-24T22:40:31.252Z,3.80
2018-03-24T22:42:58.701Z,3.70
2018-03-24T22:45:26.132Z,3.70
2018-03-24T22:47:53.571Z,3.70
2018-03-24T22:50:21.099Z,3.70
2018-03-24T22:52:48.691Z,3.70
2018-03-24T22:55:16.133Z,3.60
2018-03-24T22:57:43.576Z,3.60
2018-03-24T23:00:11.011Z,3.50
2018-03-24T23:02:38.443Z,3.50
2018-03-24T23:05:05.884Z,3.50
2018-03-24T23:07:33.328Z,3.40
2018-03-24T23:10:00.765Z,3.40
2018-03-24T23:12:28.972Z,3.20
2018-03-24T23:14:56.479Z,3.20
2018-03-24T23:17:24.657Z,3.10
2018-03-24T23:19:52.091Z,3.10
2018-03-24T23:22:19.538Z,3.10
2018-03-24T23:24:47.039Z,3.10
2018-03-24T23:27:14.487Z,3.00
2018-03-24T23:29:41.923Z,3.00
2018-03-24T23:32:09.419Z,2.90
2018-03-24T23:34:37.556Z,2.80
2018-03-24T23:37:04.997Z,2.70
2018-03-24T23:39:33.201Z,2.70
2018-03-24T23:42:00.697Z,2.70
2018-03-24T23:44:28.135Z,2.70
2018-03-24T23:46:55.575Z,2.60
2018-03-24T23:49:23.044Z,2.50
2018-03-24T23:51:50.529Z,2.50
2018-03-24T23:54:17.972Z,2.40
2018-03-24T23:56:45.490Z,2.40
2018-03-24T23:59:12.896Z,2.30
